sensor_id;sensor_type;location;lat;lon;timestamp;temperature;humidity
2893;DHT22;1456;51.840;12.184;2022-07-10T00:01:20;13.70;99.90
2893;DHT22;1456;51.840;12.184;2022-07-10T00:03:46;13.70;99.90
2893;DHT22;1456;51.840;12.184;2022-07-10T00:06:12;13.70;99.90
2893;DHT22;1456;51.840;12.184;2022-07-10T00:08:38;13.60;99.90
2893;DHT22;1456;51.840;12.184;2022-07-10T00:11:03;13.60;99.90
2893;DHT22;1456;51.840;12.184;2022-07-10T00:13:29;13.60;99.90
2893;DHT22;1456;51.840;12.184;2022-07-10T00:15:55;13.60;99.90
2893;DHT22;1456;51.840;12.184;2022-07-10T00:18:21;13.60;99.90
2893;DHT22;1456;51.840;12.184;2022-07-10T00:20:47;13.70;99.90
2893;DHT22;1456;51.840;12.184;2022-07-10T00:23:13;13.80;99.90
2893;DHT22;1456;51.840;12.184;2022-07-10T00:25:38;13.80;99.90
2893;DHT22;1456;51.840;12.184;2022-07-10T00:28:04;13.80;99.90
2893;DHT22;1456;51.840;12.184;2022-07-10T00:30:30;13.90;99.90
2893;DHT22;1456;51.840;12.184;2022-07-10T00:32:55;13.90;99.90
2893;DHT22;1456;51.840;12.184;2022-07-10T00:35:21;14.00;99.90
2893;DHT22;1456;51.840;12.184;2022-07-10T00:37:46;14.00;99.90
2893;DHT22;1456;51.840;12.184;2022-07-10T00:40:12;14.10;99.90
2893;DHT22;1456;51.840;12.184;2022-07-10T00:42:38;14.10;99.90
2893;DHT22;1456;51.840;12.184;2022-07-10T00:45:04;14.20;99.90
2893;DHT22;1456;51.840;12.184;2022-07-10T00:47:30;14.20;99.90
2893;DHT22;1456;51.840;12.184;2022-07-10T00:49:56;14.30;99.90
2893;DHT22;1456;51.840;12.184;2022-07-10T00:52:22;14.30;99.90
2893;DHT22;1456;51.840;12.184;2022-07-10T00:54:48;14.30;99.90
2893;DHT22;1456;51.840;12.184;2022-07-10T00:57:18;14.30;99.90
2893;DHT22;1456;51.840;12.184;2022-07-10T00:59:44;14.40;99.90
2893;DHT22;1456;51.840;12.184;2022-07-10T01:02:11;14.40;99.90
2893;DHT22;1456;51.840;12.184;2022-07-10T01:04:37;14.40;99.90
2893;DHT22;1456;51.840;12.184;2022-07-10T01:07:03;14.40;99.90
2893;DHT22;1456;51.840;12.184;2022-07-10T01:09:29;14.40;99.90
2893;DHT22;1456;51.840;12.184;2022-07-10T01:11:56;14.10;99.90
2893;DHT22;1456;51.840;12.184;2022-07-10T01:14:22;14.40;99.90
2893;DHT22;1456;51.840;12.184;2022-07-10T01:16:48;14.40;99.90
2893;DHT22;1456;51.840;12.184;2022-07-10T01:19:14;14.40;99.90
2893;DHT22;1456;51.840;12.184;2022-07-10T01:21:40;14.40;99.90
2893;DHT22;1456;51.840;12.184;2022-07-10T01:24:10;14.40;99.90
2893;DHT22;1456;51.840;12.184;2022-07-10T01:26:37;14.40;99.90
2893;DHT22;1456;51.840;12.184;2022-07-10T01:29:05;14.50;99.90
2893;DHT22;1456;51.840;12.184;2022-07-10T01:31:31;14.50;99.90
2893;DHT22;1456;51.840;12.184;2022-07-10T01:33:59;14.50;99.90
2893;DHT22;1456;51.840;12.184;2022-07-10T01:36:28;14.50;99.90
2893;DHT22;1456;51.840;12.184;2022-07-10T01:38:54;14.50;99.90
2893;DHT22;1456;51.840;12.184;2022-07-10T01:41:21;14.60;99.90
2893;DHT22;1456;51.840;12.184;2022-07-10T01:43:47;14.50;99.90
2893;DHT22;1456;51.840;12.184;2022-07-10T01:46:14;14.60;99.90
2893;DHT22;1456;51.840;12.184;2022-07-10T01:48:40;14.60;99.90
2893;DHT22;1456;51.840;12.184;2022-07-10T01:51:07;14.60;99.90
2893;DHT22;1456;51.840;12.184;2022-07-10T01:53:33;14.60;99.90
2893;DHT22;1456;51.840;12.184;2022-07-10T01:56:00;14.60;99.90
2893;DHT22;1456;51.840;12.184;2022-07-10T01:58:27;14.60;99.90
2893;DHT22;1456;51.840;12.184;2022-07-10T02:00:52;14.60;99.90
2893;DHT22;1456;51.840;12.184;2022-07-10T02:03:18;14.60;99.90
2893;DHT22;1456;51.840;12.184;2022-07-10T02:06:02;14.60;99.90
2893;DHT22;1456;51.840;12.184;2022-07-10T02:08:28;14.60;99.90
2893;DHT22;1456;51.840;12.184;2022-07-10T02:10:53;14.60;99.90
2893;DHT22;1456;51.840;12.184;2022-07-10T02:13:19;14.60;99.90
2893;DHT22;1456;51.840;12.184;2022-07-10T02:15:47;14.50;99.90
2893;DHT22;1456;51.840;12.184;2022-07-10T02:18:13;14.50;99.90
2893;DHT22;1456;51.840;12.184;2022-07-10T02:20:39;14.50;99.90
2893;DHT22;1456;51.840;12.184;2022-07-10T02:23:04;14.50;99.90
2893;DHT22;1456;51.840;12.184;2022-07-10T02:25:31;14.50;99.90
2893;DHT22;1456;51.840;12.184;2022-07-10T02:27:57;14.50;99.90
2893;DHT22;1456;51.840;12.184;2022-07-10T02:30:23;14.60;99.90
2893;DHT22;1456;51.840;12.184;2022-07-10T02:32:48;14.60;99.90
2893;DHT22;1456;51.840;12.184;2022-07-10T02:35:14;14.70;99.90
2893;DHT22;1456;51.840;12.184;2022-07-10T02:37:40;14.70;99.90
2893;DHT22;1456;51.840;12.184;2022-07-10T02:40:06;14.70;99.90
2893;DHT22;1456;51.840;12.184;2022-07-10T02:42:32;14.70;99.90
2893;DHT22;1456;51.840;12.184;2022-07-10T02:44:57;14.70;99.90
2893;DHT22;1456;51.840;12.184;2022-07-10T02:47:23;14.70;99.90
2893;DHT22;1456;51.840;12.184;2022-07-10T02:49:49;14.70;99.90
2893;DHT22;1456;51.840;12.184;2022-07-10T02:52:14;14.70;99.90
2893;DHT22;1456;51.840;12.184;2022-07-10T02:54:40;14.50;99.90
2893;DHT22;1456;51.840;12.184;2022-07-10T02:57:05;14.20;99.90
2893;DHT22;1456;51.840;12.184;2022-07-10T02:59:31;14.10;99.90
2893;DHT22;1456;51.840;12.184;2022-07-10T03:01:57;14.10;99.90
2893;DHT22;1456;51.840;12.184;2022-07-10T03:04:22;14.10;99.90
2893;DHT22;1456;51.840;12.184;2022-07-10T03:06:48;14.00;99.90
2893;DHT22;1456;51.840;12.184;2022-07-10T03:09:15;13.90;99.90
2893;DHT22;1456;51.840;12.184;2022-07-10T03:11:40;13.90;99.90
2893;DHT22;1456;51.840;12.184;2022-07-10T03:14:06;14.00;99.90
2893;DHT22;1456;51.840;12.184;2022-07-10T03:16:32;14.00;99.90
2893;DHT22;1456;51.840;12.184;2022-07-10T03:18:58;14.20;99.90
2893;DHT22;1456;51.840;12.184;2022-07-10T03:21:23;14.20;99.90
2893;DHT22;1456;51.840;12.184;2022-07-10T03:23:49;14.20;99.90
2893;DHT22;1456;51.840;12.184;2022-07-10T03:26:16;14.30;99.90
2893;DHT22;1456;51.840;12.184;2022-07-10T03:28:42;14.40;99.90
2893;DHT22;1456;51.840;12.184;2022-07-10T03:31:07;14.40;99.90
2893;DHT22;1456;51.840;12.184;2022-07-10T03:33:33;14.50;99.90
2893;DHT22;1456;51.840;12.184;2022-07-10T03:35:59;14.50;99.90
2893;DHT22;1456;51.840;12.184;2022-07-10T03:38:27;14.50;99.90
2893;DHT22;1456;51.840;12.184;2022-07-10T03:40:53;14.40;99.90
2893;DHT22;1456;51.840;12.184;2022-07-10T03:43:18;14.10;99.90
2893;DHT22;1456;51.840;12.184;2022-07-10T03:45:47;13.70;99.90
2893;DHT22;1456;51.840;12.184;2022-07-10T03:48:13;13.40;99.90
2893;DHT22;1456;51.840;12.184;2022-07-10T03:50:39;13.20;99.90
2893;DHT22;1456;51.840;12.184;2022-07-10T03:53:04;13.20;99.90
2893;DHT22;1456;51.840;12.184;2022-07-10T03:55:30;13.00;99.90
2893;DHT22;1456;51.840;12.184;2022-07-10T03:57:59;12.90;99.90
2893;DHT22;1456;51.840;12.184;2022-07-10T04:00:30;12.90;99.90
2893;DHT22;1456;51.840;12.184;2022-07-10T04:03:00;12.70;99.90
2893;DHT22;1456;51.840;12.184;2022-07-10T04:05:26;12.60;99.90
2893;DHT22;1456;51.840;12.184;2022-07-10T04:07:57;12.50;99.90
2893;DHT22;1456;51.840;12.184;2022-07-10T04:10:26;12.50;99.90
2893;DHT22;1456;51.840;12.184;2022-07-10T04:12:52;12.50;99.90
2893;DHT22;1456;51.840;12.184;2022-07-10T04:15:18;12.30;99.90
2893;DHT22;1456;51.840;12.184;2022-07-10T04:17:47;12.30;99.90
2893;DHT22;1456;51.840;12.184;2022-07-10T04:20:14;12.40;99.90
2893;DHT22;1456;51.840;12.184;2022-07-10T04:22:42;12.50;99.90
2893;DHT22;1456;51.840;12.184;2022-07-10T04:25:08;12.60;99.90
2893;DHT22;1456;51.840;12.184;2022-07-10T04:27:34;12.70;99.90
2893;DHT22;1456;51.840;12.184;2022-07-10T04:30:02;12.70;99.90
2893;DHT22;1456;51.840;12.184;2022-07-10T04:32:28;12.80;99.90
2893;DHT22;1456;51.840;12.184;2022-07-10T04:34:55;12.80;99.90
2893;DHT22;1456;51.840;12.184;2022-07-10T04:37:21;12.80;99.90
2893;DHT22;1456;51.840;12.184;2022-07-10T04:39:46;12.90;99.90
2893;DHT22;1456;51.840;12.184;2022-07-10T04:42:12;13.00;99.90
2893;DHT22;1456;51.840;12.184;2022-07-10T04:44:38;13.00;99.90
2893;DHT22;1456;51.840;12.184;2022-07-10T04:47:05;13.10;99.90
2893;DHT22;1456;51.840;12.184;2022-07-10T04:49:31;13.00;99.90
2893;DHT22;1456;51.840;12.184;2022-07-10T04:51:57;13.00;99.90
2893;DHT22;1456;51.840;12.184;2022-07-10T04:54:23;12.90;99.90
2893;DHT22;1456;51.840;12.184;2022-07-10T04:56:49;12.90;99.90
2893;DHT22;1456;51.840;12.184;2022-07-10T04:59:16;12.80;99.90
2893;DHT22;1456;51.840;12.184;2022-07-10T05:01:41;12.90;99.90
2893;DHT22;1456;51.840;12.184;2022-07-10T05:04:07;13.00;99.90
2893;DHT22;1456;51.840;12.184;2022-07-10T05:06:35;13.30;99.90
2893;DHT22;1456;51.840;12.184;2022-07-10T05:09:01;13.40;99.90
2893;DHT22;1456;51.840;12.184;2022-07-10T05:11:27;13.70;99.90
2893;DHT22;1456;51.840;12.184;2022-07-10T05:13:53;13.80;99.90
2893;DHT22;1456;51.840;12.184;2022-07-10T05:16:18;14.00;99.90
2893;DHT22;1456;51.840;12.184;2022-07-10T05:18:44;14.10;99.90
2893;DHT22;1456;51.840;12.184;2022-07-10T05:21:11;14.10;99.90
2893;DHT22;1456;51.840;12.184;2022-07-10T05:23:38;14.20;99.90
2893;DHT22;1456;51.840;12.184;2022-07-10T05:26:04;14.20;99.90
2893;DHT22;1456;51.840;12.184;2022-07-10T05:28:30;14.30;99.90
2893;DHT22;1456;51.840;12.184;2022-07-10T05:30:55;14.50;99.90
2893;DHT22;1456;51.840;12.184;2022-07-10T05:33:21;14.40;99.90
2893;DHT22;1456;51.840;12.184;2022-07-10T05:35:47;14.50;99.90
2893;DHT22;1456;51.840;12.184;2022-07-10T05:38:13;14.50;99.90
2893;DHT22;1456;51.840;12.184;2022-07-10T05:40:39;14.60;99.90
2893;DHT22;1456;51.840;12.184;2022-07-10T05:43:07;14.50;99.90
2893;DHT22;1456;51.840;12.184;2022-07-10T05:45:32;14.60;99.90
2893;DHT22;1456;51.840;12.184;2022-07-10T05:47:58;14.70;99.90
2893;DHT22;1456;51.840;12.184;2022-07-10T05:50:24;14.70;99.90
2893;DHT22;1456;51.840;12.184;2022-07-10T05:52:50;14.70;99.90
2893;DHT22;1456;51.840;12.184;2022-07-10T05:55:15;14.70;99.90
2893;DHT22;1456;51.840;12.184;2022-07-10T05:57:42;14.70;99.90
2893;DHT22;1456;51.840;12.184;2022-07-10T06:00:09;14.70;99.90
2893;DHT22;1456;51.840;12.184;2022-07-10T06:02:35;14.70;99.90
2893;DHT22;1456;51.840;12.184;2022-07-10T06:05:01;14.70;99.90
2893;DHT22;1456;51.840;12.184;2022-07-10T06:07:27;14.80;99.90
2893;DHT22;1456;51.840;12.184;2022-07-10T06:09:54;15.00;99.90
2893;DHT22;1456;51.840;12.184;2022-07-10T06:12:19;15.10;99.90
2893;DHT22;1456;51.840;12.184;2022-07-10T06:14:45;15.20;99.90
2893;DHT22;1456;51.840;12.184;2022-07-10T06:17:12;15.20;99.90
2893;DHT22;1456;51.840;12.184;2022-07-10T06:19:37;15.30;99.90
2893;DHT22;1456;51.840;12.184;2022-07-10T06:22:04;15.40;99.90
2893;DHT22;1456;51.840;12.184;2022-07-10T06:24:49;15.50;99.90
2893;DHT22;1456;51.840;12.184;2022-07-10T06:27:14;15.60;99.90
2893;DHT22;1456;51.840;12.184;2022-07-10T06:29:41;15.70;99.90
2893;DHT22;1456;51.840;12.184;2022-07-10T06:32:07;15.70;99.90
2893;DHT22;1456;51.840;12.184;2022-07-10T06:34:33;15.80;99.90
2893;DHT22;1456;51.840;12.184;2022-07-10T06:37:01;15.80;99.90
2893;DHT22;1456;51.840;12.184;2022-07-10T06:39:32;15.90;99.90
2893;DHT22;1456;51.840;12.184;2022-07-10T06:42:05;16.10;99.90
2893;DHT22;1456;51.840;12.184;2022-07-10T06:44:32;16.20;99.90
2893;DHT22;1456;51.840;12.184;2022-07-10T06:46:59;15.90;99.90
2893;DHT22;1456;51.840;12.184;2022-07-10T06:49:45;15.90;99.90
2893;DHT22;1456;51.840;12.184;2022-07-10T06:52:12;15.90;99.90
2893;DHT22;1456;51.840;12.184;2022-07-10T06:54:39;16.00;99.90
2893;DHT22;1456;51.840;12.184;2022-07-10T06:57:05;16.10;99.90
2893;DHT22;1456;51.840;12.184;2022-07-10T06:59:31;16.20;99.90
2893;DHT22;1456;51.840;12.184;2022-07-10T07:01:57;16.30;99.90
2893;DHT22;1456;51.840;12.184;2022-07-10T07:04:23;16.20;99.90
2893;DHT22;1456;51.840;12.184;2022-07-10T07:06:48;16.30;99.90
2893;DHT22;1456;51.840;12.184;2022-07-10T07:09:14;16.50;99.90
2893;DHT22;1456;51.840;12.184;2022-07-10T07:11:40;16.50;99.90
2893;DHT22;1456;51.840;12.184;2022-07-10T07:14:05;16.80;99.90
2893;DHT22;1456;51.840;12.184;2022-07-10T07:16:31;16.90;99.90
2893;DHT22;1456;51.840;12.184;2022-07-10T07:19:11;17.00;99.90
2893;DHT22;1456;51.840;12.184;2022-07-10T07:21:45;16.90;99.90
2893;DHT22;1456;51.840;12.184;2022-07-10T07:24:30;16.80;99.90
2893;DHT22;1456;51.840;12.184;2022-07-10T07:26:55;16.80;99.90
2893;DHT22;1456;51.840;12.184;2022-07-10T07:29:21;16.80;99.90
2893;DHT22;1456;51.840;12.184;2022-07-10T07:31:46;17.10;99.90
2893;DHT22;1456;51.840;12.184;2022-07-10T07:34:12;17.30;99.90
2893;DHT22;1456;51.840;12.184;2022-07-10T07:36:38;17.50;99.90
2893;DHT22;1456;51.840;12.184;2022-07-10T07:39:04;17.60;99.90
2893;DHT22;1456;51.840;12.184;2022-07-10T07:41:30;17.40;99.90
2893;DHT22;1456;51.840;12.184;2022-07-10T07:43:56;17.40;99.90
2893;DHT22;1456;51.840;12.184;2022-07-10T07:46:21;17.40;99.90
2893;DHT22;1456;51.840;12.184;2022-07-10T07:48:48;17.40;99.90
2893;DHT22;1456;51.840;12.184;2022-07-10T07:51:15;17.20;99.90
2893;DHT22;1456;51.840;12.184;2022-07-10T07:53:41;17.10;99.90
2893;DHT22;1456;51.840;12.184;2022-07-10T07:56:07;17.20;99.90
2893;DHT22;1456;51.840;12.184;2022-07-10T07:58:32;17.50;99.90
2893;DHT22;1456;51.840;12.184;2022-07-10T08:00:59;17.70;99.90
2893;DHT22;1456;51.840;12.184;2022-07-10T08:03:24;17.80;99.90
2893;DHT22;1456;51.840;12.184;2022-07-10T08:05:50;17.80;99.90
2893;DHT22;1456;51.840;12.184;2022-07-10T08:08:16;17.90;99.90
2893;DHT22;1456;51.840;12.184;2022-07-10T08:10:43;18.10;99.90
2893;DHT22;1456;51.840;12.184;2022-07-10T08:13:08;17.90;99.90
2893;DHT22;1456;51.840;12.184;2022-07-10T08:15:34;17.80;99.90
2893;DHT22;1456;51.840;12.184;2022-07-10T08:18:00;17.90;99.90
2893;DHT22;1456;51.840;12.184;2022-07-10T08:20:29;18.00;99.90
2893;DHT22;1456;51.840;12.184;2022-07-10T08:22:55;18.30;99.90
2893;DHT22;1456;51.840;12.184;2022-07-10T08:25:21;18.50;99.60
2893;DHT22;1456;51.840;12.184;2022-07-10T08:27:47;18.50;99.60
2893;DHT22;1456;51.840;12.184;2022-07-10T08:30:13;18.70;99.20
2893;DHT22;1456;51.840;12.184;2022-07-10T08:32:39;18.90;99.00
2893;DHT22;1456;51.840;12.184;2022-07-10T08:35:06;19.00;98.10
2893;DHT22;1456;51.840;12.184;2022-07-10T08:37:39;18.90;97.70
2893;DHT22;1456;51.840;12.184;2022-07-10T08:40:05;18.90;97.50
2893;DHT22;1456;51.840;12.184;2022-07-10T08:42:32;18.80;98.00
2893;DHT22;1456;51.840;12.184;2022-07-10T08:44:58;18.90;98.20
2893;DHT22;1456;51.840;12.184;2022-07-10T08:47:24;18.50;97.40
2893;DHT22;1456;51.840;12.184;2022-07-10T08:49:51;18.30;97.80
2893;DHT22;1456;51.840;12.184;2022-07-10T08:54:52;17.80;98.60
2893;DHT22;1456;51.840;12.184;2022-07-10T08:57:19;17.50;98.20
2893;DHT22;1456;51.840;12.184;2022-07-10T08:59:45;17.40;98.60
2893;DHT22;1456;51.840;12.184;2022-07-10T09:02:11;17.70;99.00
2893;DHT22;1456;51.840;12.184;2022-07-10T09:04:36;18.00;98.90
2893;DHT22;1456;51.840;12.184;2022-07-10T09:07:02;18.30;98.30
2893;DHT22;1456;51.840;12.184;2022-07-10T09:09:29;18.10;97.40
2893;DHT22;1456;51.840;12.184;2022-07-10T09:11:58;17.90;97.90
2893;DHT22;1456;51.840;12.184;2022-07-10T09:14:26;17.40;98.70
2893;DHT22;1456;51.840;12.184;2022-07-10T09:16:53;16.90;99.90
2893;DHT22;1456;51.840;12.184;2022-07-10T09:19:20;16.80;99.90
2893;DHT22;1456;51.840;12.184;2022-07-10T09:21:48;16.80;99.90
2893;DHT22;1456;51.840;12.184;2022-07-10T09:24:15;17.00;99.90
2893;DHT22;1456;51.840;12.184;2022-07-10T09:29:19;17.00;99.20
2893;DHT22;1456;51.840;12.184;2022-07-10T09:31:52;16.90;98.90
2893;DHT22;1456;51.840;12.184;2022-07-10T09:34:19;16.70;98.00
2893;DHT22;1456;51.840;12.184;2022-07-10T09:37:23;16.80;98.50
2893;DHT22;1456;51.840;12.184;2022-07-10T09:40:00;17.20;98.30
2893;DHT22;1456;51.840;12.184;2022-07-10T09:42:39;17.60;98.50
2893;DHT22;1456;51.840;12.184;2022-07-10T09:50:21;18.10;97.10
2893;DHT22;1456;51.840;12.184;2022-07-10T09:52:50;18.40;96.20
2893;DHT22;1456;51.840;12.184;2022-07-10T09:55:19;18.80;95.90
2893;DHT22;1456;51.840;12.184;2022-07-10T09:57:50;19.20;94.70
2893;DHT22;1456;51.840;12.184;2022-07-10T10:00:17;19.80;93.90
2893;DHT22;1456;51.840;12.184;2022-07-10T10:02:44;20.00;92.90
2893;DHT22;1456;51.840;12.184;2022-07-10T10:05:11;20.50;92.90
2893;DHT22;1456;51.840;12.184;2022-07-10T10:07:39;21.00;92.30
2893;DHT22;1456;51.840;12.184;2022-07-10T10:10:07;21.80;89.90
2893;DHT22;1456;51.840;12.184;2022-07-10T10:12:42;22.30;85.70
2893;DHT22;1456;51.840;12.184;2022-07-10T10:15:10;21.90;86.70
2893;DHT22;1456;51.840;12.184;2022-07-10T10:17:40;21.60;85.40
2893;DHT22;1456;51.840;12.184;2022-07-10T10:20:07;21.20;83.10
2893;DHT22;1456;51.840;12.184;2022-07-10T10:22:54;21.30;85.40
2893;DHT22;1456;51.840;12.184;2022-07-10T10:25:23;22.30;85.00
2893;DHT22;1456;51.840;12.184;2022-07-10T10:27:50;22.60;80.50
2893;DHT22;1456;51.840;12.184;2022-07-10T10:30:17;22.50;80.50
2893;DHT22;1456;51.840;12.184;2022-07-10T10:32:43;22.00;80.30
2893;DHT22;1456;51.840;12.184;2022-07-10T10:35:09;22.20;82.20
2893;DHT22;1456;51.840;12.184;2022-07-10T10:37:39;22.50;81.30
2893;DHT22;1456;51.840;12.184;2022-07-10T10:40:09;23.00;78.60
2893;DHT22;1456;51.840;12.184;2022-07-10T10:42:42;23.60;78.30
2893;DHT22;1456;51.840;12.184;2022-07-10T10:53:32;21.30;80.10
2893;DHT22;1456;51.840;12.184;2022-07-10T10:58:45;19.90;85.20
2893;DHT22;1456;51.840;12.184;2022-07-10T11:09:34;19.90;89.60
2893;DHT22;1456;51.840;12.184;2022-07-10T11:14:27;21.20;88.10
2893;DHT22;1456;51.840;12.184;2022-07-10T11:16:55;22.40;83.20
2893;DHT22;1456;51.840;12.184;2022-07-10T11:19:22;23.50;82.20
2893;DHT22;1456;51.840;12.184;2022-07-10T11:24:51;23.60;76.10
2893;DHT22;1456;51.840;12.184;2022-07-10T11:27:48;22.90;78.10
2893;DHT22;1456;51.840;12.184;2022-07-10T11:30:14;22.00;80.70
2893;DHT22;1456;51.840;12.184;2022-07-10T11:32:40;21.20;80.50
2893;DHT22;1456;51.840;12.184;2022-07-10T11:35:10;21.30;81.90
2893;DHT22;1456;51.840;12.184;2022-07-10T11:37:36;21.50;82.40
2893;DHT22;1456;51.840;12.184;2022-07-10T11:40:14;22.70;79.90
2893;DHT22;1456;51.840;12.184;2022-07-10T11:42:53;24.10;77.90
2893;DHT22;1456;51.840;12.184;2022-07-10T11:45:30;25.30;74.00
2893;DHT22;1456;51.840;12.184;2022-07-10T11:47:57;25.80;71.10
2893;DHT22;1456;51.840;12.184;2022-07-10T11:50:23;26.60;70.20
2893;DHT22;1456;51.840;12.184;2022-07-10T11:52:50;25.60;65.80
2893;DHT22;1456;51.840;12.184;2022-07-10T11:55:18;24.80;71.20
2893;DHT22;1456;51.840;12.184;2022-07-10T11:57:44;24.00;71.90
2893;DHT22;1456;51.840;12.184;2022-07-10T12:00:28;22.90;71.90
2893;DHT22;1456;51.840;12.184;2022-07-10T12:02:56;22.10;75.30
2893;DHT22;1456;51.840;12.184;2022-07-10T12:05:38;22.80;77.90
2893;DHT22;1456;51.840;12.184;2022-07-10T12:08:04;25.30;70.80
2893;DHT22;1456;51.840;12.184;2022-07-10T12:10:32;26.70;70.60
2893;DHT22;1456;51.840;12.184;2022-07-10T12:13:14;26.80;65.20
2893;DHT22;1456;51.840;12.184;2022-07-10T12:15:45;26.30;65.80
2893;DHT22;1456;51.840;12.184;2022-07-10T12:18:20;27.20;70.10
2893;DHT22;1456;51.840;12.184;2022-07-10T12:20:48;27.80;66.30
2893;DHT22;1456;51.840;12.184;2022-07-10T12:23:16;28.50;62.40
2893;DHT22;1456;51.840;12.184;2022-07-10T12:25:49;29.10;59.50
2893;DHT22;1456;51.840;12.184;2022-07-10T12:28:16;29.20;58.00
2893;DHT22;1456;51.840;12.184;2022-07-10T12:30:46;28.90;57.60
2893;DHT22;1456;51.840;12.184;2022-07-10T12:33:14;27.70;55.40
2893;DHT22;1456;51.840;12.184;2022-07-10T12:35:54;25.90;56.20
2893;DHT22;1456;51.840;12.184;2022-07-10T12:38:28;26.00;59.20
2893;DHT22;1456;51.840;12.184;2022-07-10T12:41:08;26.40;55.80
2893;DHT22;1456;51.840;12.184;2022-07-10T12:43:34;25.60;55.20
2893;DHT22;1456;51.840;12.184;2022-07-10T12:46:23;24.70;58.50
2893;DHT22;1456;51.840;12.184;2022-07-10T12:51:49;27.00;56.60
2893;DHT22;1456;51.840;12.184;2022-07-10T12:54:44;27.10;57.80
2893;DHT22;1456;51.840;12.184;2022-07-10T12:57:10;26.20;56.70
2893;DHT22;1456;51.840;12.184;2022-07-10T12:59:36;25.30;58.20
2893;DHT22;1456;51.840;12.184;2022-07-10T13:02:20;24.60;59.30
2893;DHT22;1456;51.840;12.184;2022-07-10T13:04:53;24.10;59.70
2893;DHT22;1456;51.840;12.184;2022-07-10T13:07:19;24.10;59.40
2893;DHT22;1456;51.840;12.184;2022-07-10T13:09:47;24.70;58.90
2893;DHT22;1456;51.840;12.184;2022-07-10T13:12:15;24.70;58.30
2893;DHT22;1456;51.840;12.184;2022-07-10T13:14:41;24.10;57.80
2893;DHT22;1456;51.840;12.184;2022-07-10T13:17:07;23.40;58.20
2893;DHT22;1456;51.840;12.184;2022-07-10T13:19:33;23.20;59.70
2893;DHT22;1456;51.840;12.184;2022-07-10T13:21:58;23.10;58.70
2893;DHT22;1456;51.840;12.184;2022-07-10T13:24:24;23.10;58.90
2893;DHT22;1456;51.840;12.184;2022-07-10T13:26:53;23.10;60.70
2893;DHT22;1456;51.840;12.184;2022-07-10T13:29:21;23.20;60.00
2893;DHT22;1456;51.840;12.184;2022-07-10T13:31:46;23.10;59.00
2893;DHT22;1456;51.840;12.184;2022-07-10T13:34:12;24.30;59.80
2893;DHT22;1456;51.840;12.184;2022-07-10T13:36:39;26.30;57.50
2893;DHT22;1456;51.840;12.184;2022-07-10T13:39:05;26.10;55.70
2893;DHT22;1456;51.840;12.184;2022-07-10T13:41:30;25.30;56.10
2893;DHT22;1456;51.840;12.184;2022-07-10T13:43:56;24.70;57.50
2893;DHT22;1456;51.840;12.184;2022-07-10T13:46:21;24.30;59.40
2893;DHT22;1456;51.840;12.184;2022-07-10T13:48:47;24.00;58.90
2893;DHT22;1456;51.840;12.184;2022-07-10T13:51:13;24.10;58.80
2893;DHT22;1456;51.840;12.184;2022-07-10T13:53:38;24.30;58.00
2893;DHT22;1456;51.840;12.184;2022-07-10T13:56:07;24.10;57.00
2893;DHT22;1456;51.840;12.184;2022-07-10T13:58:34;23.50;55.60
2893;DHT22;1456;51.840;12.184;2022-07-10T14:01:00;23.00;57.10
2893;DHT22;1456;51.840;12.184;2022-07-10T14:03:26;22.90;57.50
2893;DHT22;1456;51.840;12.184;2022-07-10T14:05:52;22.60;57.90
2893;DHT22;1456;51.840;12.184;2022-07-10T14:08:18;22.70;59.60
2893;DHT22;1456;51.840;12.184;2022-07-10T14:10:44;24.00;59.00
2893;DHT22;1456;51.840;12.184;2022-07-10T14:13:10;24.90;57.00
2893;DHT22;1456;51.840;12.184;2022-07-10T14:15:36;24.60;56.00
2893;DHT22;1456;51.840;12.184;2022-07-10T14:18:02;23.90;55.40
2893;DHT22;1456;51.840;12.184;2022-07-10T14:20:30;23.30;56.30
2893;DHT22;1456;51.840;12.184;2022-07-10T14:23:16;23.60;57.40
2893;DHT22;1456;51.840;12.184;2022-07-10T14:25:41;25.00;57.00
2893;DHT22;1456;51.840;12.184;2022-07-10T14:28:07;25.40;56.90
2893;DHT22;1456;51.840;12.184;2022-07-10T14:30:33;25.30;57.10
2893;DHT22;1456;51.840;12.184;2022-07-10T14:32:58;25.30;57.00
2893;DHT22;1456;51.840;12.184;2022-07-10T14:35:24;25.40;55.50
2893;DHT22;1456;51.840;12.184;2022-07-10T14:37:49;24.90;54.80
2893;DHT22;1456;51.840;12.184;2022-07-10T14:40:15;24.70;53.70
2893;DHT22;1456;51.840;12.184;2022-07-10T14:42:41;25.60;56.80
2893;DHT22;1456;51.840;12.184;2022-07-10T14:45:07;27.30;54.40
2893;DHT22;1456;51.840;12.184;2022-07-10T14:47:32;28.50;53.80
2893;DHT22;1456;51.840;12.184;2022-07-10T14:49:59;28.40;53.20
2893;DHT22;1456;51.840;12.184;2022-07-10T14:52:27;29.90;51.20
2893;DHT22;1456;51.840;12.184;2022-07-10T14:54:55;30.00;49.10
2893;DHT22;1456;51.840;12.184;2022-07-10T14:57:21;28.60;49.90
2893;DHT22;1456;51.840;12.184;2022-07-10T14:59:46;27.40;49.90
2893;DHT22;1456;51.840;12.184;2022-07-10T15:02:12;26.30;52.50
2893;DHT22;1456;51.840;12.184;2022-07-10T15:04:38;25.40;53.30
2893;DHT22;1456;51.840;12.184;2022-07-10T15:07:04;25.50;52.70
2893;DHT22;1456;51.840;12.184;2022-07-10T15:09:29;25.90;52.00
2893;DHT22;1456;51.840;12.184;2022-07-10T15:11:55;25.30;53.00
2893;DHT22;1456;51.840;12.184;2022-07-10T15:14:21;26.30;53.30
2893;DHT22;1456;51.840;12.184;2022-07-10T15:16:47;28.50;51.40
2893;DHT22;1456;51.840;12.184;2022-07-10T15:19:13;29.00;48.40
2893;DHT22;1456;51.840;12.184;2022-07-10T15:21:39;28.60;48.90
2893;DHT22;1456;51.840;12.184;2022-07-10T15:24:05;30.20;48.00
2893;DHT22;1456;51.840;12.184;2022-07-10T15:26:30;31.20;47.50
2893;DHT22;1456;51.840;12.184;2022-07-10T15:28:56;30.90;46.00
2893;DHT22;1456;51.840;12.184;2022-07-10T15:31:24;28.50;46.40
2893;DHT22;1456;51.840;12.184;2022-07-10T15:33:50;27.10;48.30
2893;DHT22;1456;51.840;12.184;2022-07-10T15:36:15;26.10;49.10
2893;DHT22;1456;51.840;12.184;2022-07-10T15:38:41;25.70;50.80
2893;DHT22;1456;51.840;12.184;2022-07-10T15:41:07;25.20;50.70
2893;DHT22;1456;51.840;12.184;2022-07-10T15:43:33;24.40;50.90
2893;DHT22;1456;51.840;12.184;2022-07-10T15:45:59;24.00;52.70
2893;DHT22;1456;51.840;12.184;2022-07-10T15:48:25;24.30;53.40
2893;DHT22;1456;51.840;12.184;2022-07-10T15:50:51;26.00;51.60
2893;DHT22;1456;51.840;12.184;2022-07-10T15:53:19;26.60;51.00
2893;DHT22;1456;51.840;12.184;2022-07-10T15:55:45;26.70;50.90
2893;DHT22;1456;51.840;12.184;2022-07-10T15:58:11;25.70;50.80
2893;DHT22;1456;51.840;12.184;2022-07-10T16:00:38;24.70;52.20
2893;DHT22;1456;51.840;12.184;2022-07-10T16:03:04;24.30;53.40
2893;DHT22;1456;51.840;12.184;2022-07-10T16:05:29;23.80;53.00
2893;DHT22;1456;51.840;12.184;2022-07-10T16:07:55;23.70;53.50
2893;DHT22;1456;51.840;12.184;2022-07-10T16:10:21;23.80;54.70
2893;DHT22;1456;51.840;12.184;2022-07-10T16:12:46;24.10;53.70
2893;DHT22;1456;51.840;12.184;2022-07-10T16:15:12;24.10;53.90
2893;DHT22;1456;51.840;12.184;2022-07-10T16:17:37;23.90;53.70
2893;DHT22;1456;51.840;12.184;2022-07-10T16:20:03;23.70;54.10
2893;DHT22;1456;51.840;12.184;2022-07-10T16:22:30;23.20;54.00
2893;DHT22;1456;51.840;12.184;2022-07-10T16:24:56;23.80;54.10